vACC Slovenia

METAR LJMB

LJMB 271530Z 06004KT 350V100 CAVOK 14/M05 Q1024

News

New Airport Briefing

In the ATC-Download-Section you can find our new Airport Briefing. For Ljubljana this is Version 2, Maribor and Portoroz are provided with Version 1.

vatroute

Gentlemen, vACC Slovenia is now participating in http://www.vatroute.net/. You can now feel free to request routes from/to our airports via the client application. But be aware of the fact that it can sometimes be very hard for us to find the right way. So please be patient and check back regularly in these cases.

Kind Regards,
vACC Slovenia team

Sign In

ATC Booking

currently no ATC Bookings...